Terminal Aerodrome Forecast
Issued by NWS Birmingham, AL

Home | Current Version | Previous Version | Text Only | Print | Product List | Glossary On
Versions: 1 2 3 4 5 6 7 8 9 10 11 12
000
FTUS44 KBMX 051130
TAFBHM
TAF
KBHM 051130Z 0512/0612 00000KT P6SM SKC
     FM051500 13008KT P6SM SCT080
     FM060000 10002KT P6SM SKC=

USA.gov is the U.S. government's official web portal to all federal, state and local government web resources and services.